createdAt,value
2023-02-26T00:00:41.848Z,4.10
2023-02-26T00:03:11.244Z,4.10
2023-02-26T00:05:40.810Z,4.10
2023-02-26T00:08:10.646Z,4.10
2023-02-26T00:10:40.373Z,4.10
2023-02-26T00:13:11.119Z,4.10
2023-02-26T00:15:42.153Z,4.10
2023-02-26T00:18:17.499Z,4.00
2023-02-26T00:20:48.398Z,4.10
2023-02-26T00:23:18.661Z,4.00
2023-02-26T00:25:48.710Z,4.00
2023-02-26T00:28:18.395Z,4.00
2023-02-26T00:30:49.725Z,4.00
2023-02-26T00:33:19.400Z,4.00
2023-02-26T00:35:48.634Z,4.00
2023-02-26T00:38:19.026Z,4.00
2023-02-26T00:40:50.151Z,4.00
2023-02-26T00:43:22.616Z,4.00
2023-02-26T00:46:02.853Z,3.90
2023-02-26T00:48:45.352Z,3.90
2023-02-26T00:51:22.136Z,3.90
2023-02-26T00:53:58.420Z,3.90
2023-02-26T00:56:27.541Z,3.90
2023-02-26T00:58:56.454Z,3.90
2023-02-26T01:01:26.831Z,3.90
2023-02-26T01:03:56.771Z,3.90
2023-02-26T01:06:29.723Z,3.90
2023-02-26T01:09:06.624Z,3.90
2023-02-26T01:11:37.390Z,3.90
2023-02-26T01:14:07.241Z,3.80
2023-02-26T01:16:51.485Z,3.80
2023-02-26T01:19:29.052Z,3.80
2023-02-26T01:22:05.031Z,3.80
2023-02-26T01:24:38.014Z,3.80
2023-02-26T01:27:07.469Z,3.70
2023-02-26T01:29:36.823Z,3.70
2023-02-26T01:32:13.732Z,3.70
2023-02-26T01:34:48.097Z,3.70
2023-02-26T01:37:28.769Z,3.60
2023-02-26T01:40:26.682Z,3.70
2023-02-26T01:43:01.481Z,3.60
2023-02-26T01:45:34.564Z,3.60
2023-02-26T01:48:11.232Z,3.60
2023-02-26T01:50:40.940Z,3.50
2023-02-26T01:53:20.302Z,3.50
2023-02-26T01:55:53.746Z,3.50
2023-02-26T01:58:24.663Z,3.50
2023-02-26T02:00:53.708Z,3.50
2023-02-26T02:03:26.915Z,3.50
2023-02-26T02:05:59.669Z,3.50
2023-02-26T02:08:28.784Z,3.50
2023-02-26T02:10:57.862Z,3.50
2023-02-26T02:13:36.818Z,3.40
2023-02-26T02:16:18.065Z,3.40
2023-02-26T02:18:57.301Z,3.40
2023-02-26T02:22:07.937Z,3.40
2023-02-26T02:24:45.586Z,3.40
2023-02-26T02:27:21.440Z,3.40
2023-02-26T02:30:02.605Z,3.40
2023-02-26T02:32:37.320Z,3.40
2023-02-26T02:35:13.920Z,3.30
2023-02-26T02:37:47.314Z,3.30
2023-02-26T02:40:20.667Z,3.30
2023-02-26T02:42:54.589Z,3.30
2023-02-26T02:45:27.683Z,3.30
2023-02-26T02:48:05.276Z,3.30
2023-02-26T02:50:39.393Z,3.30
2023-02-26T02:53:15.141Z,3.30
2023-02-26T02:55:49.631Z,3.30
2023-02-26T02:58:23.278Z,3.30
2023-02-26T03:00:56.108Z,3.30
2023-02-26T03:03:35.227Z,3.30
2023-02-26T03:06:05.009Z,3.30
2023-02-26T03:08:38.283Z,3.30
2023-02-26T03:11:07.432Z,3.30
2023-02-26T03:13:36.982Z,3.30
2023-02-26T03:16:39.323Z,3.30
2023-02-26T03:19:19.110Z,3.30
2023-02-26T03:21:53.665Z,3.40
2023-02-26T03:24:52.142Z,3.40
2023-02-26T03:27:28.258Z,3.40
2023-02-26T03:30:01.759Z,3.40
2023-02-26T03:32:41.140Z,3.30
2023-02-26T03:35:16.905Z,3.30
2023-02-26T03:37:49.174Z,3.30
2023-02-26T03:40:24.864Z,3.30
2023-02-26T03:42:58.939Z,3.30
2023-02-26T03:45:32.685Z,3.30
2023-02-26T03:48:03.722Z,3.30
2023-02-26T03:50:38.329Z,3.30
2023-02-26T03:53:51.603Z,3.40
2023-02-26T03:56:29.215Z,3.40
2023-02-26T03:59:34.789Z,3.40
2023-02-26T04:02:17.303Z,3.40
2023-02-26T04:04:52.407Z,3.40
2023-02-26T04:07:24.093Z,3.40
2023-02-26T04:09:53.826Z,3.40
2023-02-26T04:12:29.198Z,3.40
2023-02-26T04:14:59.508Z,3.40
2023-02-26T04:17:30.344Z,3.40
2023-02-26T04:20:00.605Z,3.40
2023-02-26T04:22:31.786Z,3.40
2023-02-26T04:25:01.145Z,3.40
2023-02-26T04:27:30.972Z,3.30
2023-02-26T04:29:59.924Z,3.30
2023-02-26T04:32:28.932Z,3.30
2023-02-26T04:34:57.877Z,3.30
2023-02-26T04:37:27.009Z,3.30
2023-02-26T04:39:57.329Z,3.30
2023-02-26T04:42:26.697Z,3.40
2023-02-26T04:44:56.668Z,3.30
2023-02-26T04:47:27.480Z,3.30
2023-02-26T04:49:56.334Z,3.40
2023-02-26T04:52:25.428Z,3.40
2023-02-26T04:54:54.751Z,3.40
2023-02-26T04:57:24.906Z,3.40
2023-02-26T04:59:53.802Z,3.40
2023-02-26T05:02:26.681Z,3.40
2023-02-26T05:04:56.152Z,3.50
2023-02-26T05:07:25.366Z,3.50
2023-02-26T05:09:54.297Z,3.50
2023-02-26T05:12:24.657Z,3.50
2023-02-26T05:14:53.998Z,3.50
2023-02-26T05:17:23.427Z,3.50
2023-02-26T05:19:52.693Z,3.60
2023-02-26T05:22:21.829Z,3.60
2023-02-26T05:24:50.974Z,3.50
2023-02-26T05:27:19.977Z,3.60
2023-02-26T05:29:51.167Z,3.60
2023-02-26T05:32:20.513Z,3.60
2023-02-26T05:34:49.528Z,3.60
2023-02-26T05:37:18.414Z,3.60
2023-02-26T05:39:47.476Z,3.60
2023-02-26T05:42:16.457Z,3.60
2023-02-26T05:44:45.341Z,3.60
2023-02-26T05:47:15.900Z,3.60
2023-02-26T05:49:45.109Z,3.60
2023-02-26T05:52:13.976Z,3.60
2023-02-26T05:54:43.153Z,3.60
2023-02-26T05:57:12.234Z,3.60
2023-02-26T05:59:41.168Z,3.70
2023-02-26T06:02:10.531Z,3.70
2023-02-26T06:04:40.968Z,3.70
2023-02-26T06:07:10.006Z,3.70
2023-02-26T06:09:38.980Z,3.70
2023-02-26T06:12:08.375Z,3.70
2023-02-26T06:14:37.533Z,3.70
2023-02-26T06:17:06.793Z,3.70
2023-02-26T06:19:35.855Z,3.70
2023-02-26T06:22:06.209Z,3.70
2023-02-26T06:24:35.124Z,3.80
2023-02-26T06:27:04.506Z,3.80
2023-02-26T06:29:33.392Z,3.80
2023-02-26T06:32:02.396Z,3.80
2023-02-26T06:34:31.542Z,3.80
2023-02-26T06:37:00.709Z,3.80
2023-02-26T06:39:31.111Z,3.80
2023-02-26T06:42:00.492Z,3.80
2023-02-26T06:44:29.437Z,3.80
2023-02-26T06:46:58.278Z,3.80
2023-02-26T06:49:27.661Z,3.80
2023-02-26T06:51:56.774Z,3.80
2023-02-26T06:54:25.763Z,3.80
2023-02-26T06:56:57.754Z,3.90
2023-02-26T06:59:26.724Z,3.90
2023-02-26T07:01:57.294Z,3.90
2023-02-26T07:04:26.508Z,3.90
2023-02-26T07:06:55.469Z,4.00
2023-02-26T07:09:24.414Z,4.00
2023-02-26T07:11:53.194Z,4.10
2023-02-26T07:14:23.585Z,4.10
2023-02-26T07:16:52.507Z,4.10
2023-02-26T07:19:21.644Z,4.10
2023-02-26T07:21:50.980Z,4.20
2023-02-26T07:24:19.785Z,4.20
2023-02-26T07:26:48.845Z,4.30
2023-02-26T07:29:17.741Z,4.30
2023-02-26T07:31:48.235Z,4.30
2023-02-26T07:34:17.273Z,4.40
2023-02-26T07:36:46.736Z,4.40
2023-02-26T07:39:15.860Z,4.50
2023-02-26T07:41:44.999Z,4.50
2023-02-26T07:44:17.193Z,4.50
2023-02-26T07:46:48.688Z,4.50
2023-02-26T07:49:18.100Z,4.60
2023-02-26T07:51:47.202Z,4.60
2023-02-26T07:54:16.472Z,4.60
2023-02-26T07:56:45.361Z,4.60
2023-02-26T07:59:14.385Z,4.60
2023-02-26T08:01:43.424Z,4.60
2023-02-26T08:04:13.775Z,4.70
2023-02-26T08:06:43.011Z,4.70
2023-02-26T08:09:13.238Z,4.70
2023-02-26T08:11:43.330Z,4.70
2023-02-26T08:14:12.998Z,4.70
2023-02-26T08:16:42.103Z,4.70
2023-02-26T08:19:11.462Z,4.70
2023-02-26T08:21:41.855Z,4.70
2023-02-26T08:24:12.303Z,4.70
2023-02-26T08:26:41.410Z,4.70
2023-02-26T08:29:10.441Z,4.70
2023-02-26T08:31:39.467Z,4.70
2023-02-26T08:34:08.665Z,4.70
2023-02-26T08:36:37.652Z,4.70
2023-02-26T08:44:37.637Z,4.70
2023-02-26T08:47:29.125Z,4.80
2023-02-26T08:49:58.913Z,4.80
2023-02-26T08:52:27.966Z,4.80
2023-02-26T08:54:56.857Z,4.90
2023-02-26T08:57:26.249Z,4.90
2023-02-26T08:59:56.823Z,4.90
2023-02-26T09:02:25.919Z,5.00
2023-02-26T09:04:55.201Z,5.00
2023-02-26T09:07:24.611Z,5.00
2023-02-26T09:09:53.738Z,5.10
2023-02-26T09:12:22.972Z,5.10
2023-02-26T09:14:51.946Z,5.10
2023-02-26T09:17:22.676Z,5.10
2023-02-26T09:19:52.159Z,5.10
2023-02-26T09:22:21.453Z,5.20
2023-02-26T09:24:50.431Z,5.20
2023-02-26T09:27:19.806Z,5.20
2023-02-26T09:29:49.206Z,5.20
2023-02-26T09:32:18.293Z,5.20
2023-02-26T09:34:49.049Z,5.20
2023-02-26T09:37:18.870Z,5.20
2023-02-26T09:39:48.048Z,5.20
2023-02-26T09:42:40.475Z,5.20
2023-02-26T09:45:18.282Z,5.20
2023-02-26T09:47:51.761Z,5.30
2023-02-26T09:50:25.454Z,5.30
2023-02-26T09:53:01.515Z,5.30
2023-02-26T09:55:36.146Z,5.30
2023-02-26T09:58:12.463Z,5.40
2023-02-26T10:00:54.389Z,5.40
2023-02-26T10:03:28.893Z,5.50
2023-02-26T10:06:24.633Z,5.50
2023-02-26T10:09:21.350Z,5.50
2023-02-26T10:11:54.257Z,5.60
2023-02-26T10:14:29.387Z,5.60
2023-02-26T10:17:04.085Z,5.60
2023-02-26T10:19:38.425Z,5.60
2023-02-26T10:22:17.960Z,5.70
2023-02-26T10:24:50.442Z,5.80
2023-02-26T10:27:25.488Z,5.90
2023-02-26T10:29:59.948Z,6.00
2023-02-26T10:32:36.325Z,6.20
2023-02-26T10:35:10.991Z,6.30
2023-02-26T10:37:49.232Z,6.40
2023-02-26T10:40:21.898Z,6.50
2023-02-26T10:42:56.296Z,6.60
2023-02-26T10:45:35.061Z,6.80
2023-02-26T10:48:24.804Z,6.90
2023-02-26T10:50:57.214Z,7.10
2023-02-26T10:53:29.694Z,7.20
2023-02-26T10:56:06.290Z,7.40
2023-02-26T10:58:35.365Z,7.70
2023-02-26T11:01:12.570Z,8.10
2023-02-26T11:03:44.733Z,8.40
2023-02-26T11:06:20.100Z,8.70
2023-02-26T11:08:53.221Z,9.00
2023-02-26T11:11:43.454Z,9.30
2023-02-26T11:14:12.515Z,9.70
2023-02-26T11:16:50.372Z,10.30
2023-02-26T11:19:24.559Z,10.80
2023-02-26T11:21:54.227Z,11.20
2023-02-26T11:24:30.337Z,11.60
2023-02-26T11:27:04.161Z,12.20
2023-02-26T11:29:39.464Z,12.70
2023-02-26T11:32:15.134Z,13.20
2023-02-26T11:34:48.201Z,13.50
2023-02-26T11:37:21.315Z,13.50
2023-02-26T11:39:56.367Z,13.50
2023-02-26T11:42:25.831Z,13.50
2023-02-26T11:44:55.977Z,13.50
2023-02-26T11:47:29.429Z,13.40
2023-02-26T11:50:11.667Z,13.30
2023-02-26T11:52:44.368Z,13.00
2023-02-26T11:55:24.816Z,12.60
2023-02-26T11:57:55.658Z,12.20
2023-02-26T12:00:31.325Z,11.80
2023-02-26T12:03:04.901Z,11.30
2023-02-26T12:05:34.399Z,11.00
2023-02-26T12:08:06.369Z,10.70
2023-02-26T12:10:44.547Z,10.30
2023-02-26T12:13:26.344Z,10.00
2023-02-26T12:16:01.575Z,9.70
2023-02-26T12:18:42.679Z,9.40
2023-02-26T12:21:30.207Z,9.10
2023-02-26T12:24:22.220Z,8.90
2023-02-26T12:27:00.495Z,8.70
2023-02-26T12:29:41.611Z,8.50
2023-02-26T12:32:28.398Z,8.40
2023-02-26T12:35:45.726Z,8.20
2023-02-26T12:38:26.918Z,8.10
2023-02-26T12:41:32.697Z,7.90
2023-02-26T12:44:24.787Z,7.80
2023-02-26T12:47:11.926Z,7.80
2023-02-26T12:49:55.261Z,7.90
2023-02-26T12:52:46.569Z,8.50
2023-02-26T12:55:25.333Z,9.40
2023-02-26T12:58:24.517Z,10.40
2023-02-26T13:01:22.489Z,11.30
2023-02-26T13:04:15.732Z,11.90
2023-02-26T13:06:59.387Z,12.40
2023-02-26T13:09:43.027Z,12.70
2023-02-26T13:12:31.650Z,13.00
2023-02-26T13:15:12.657Z,13.30
2023-02-26T13:17:49.843Z,13.40
2023-02-26T13:20:22.984Z,13.30
2023-02-26T13:22:56.548Z,13.10
2023-02-26T13:25:32.985Z,12.80
2023-02-26T13:28:05.147Z,12.50
2023-02-26T13:30:39.664Z,12.30
2023-02-26T13:33:19.633Z,12.00
2023-02-26T13:35:51.217Z,11.70
2023-02-26T13:38:25.193Z,11.40
2023-02-26T13:41:04.991Z,11.10
2023-02-26T13:43:44.511Z,10.80
2023-02-26T13:46:25.485Z,10.40
2023-02-26T13:49:04.111Z,10.10
2023-02-26T13:51:37.829Z,9.80
2023-02-26T13:54:29.342Z,9.50
2023-02-26T13:57:09.709Z,9.20
2023-02-26T13:59:54.714Z,8.90
2023-02-26T14:02:44.561Z,8.70
2023-02-26T14:06:01.084Z,8.50
2023-02-26T14:08:54.711Z,8.30
2023-02-26T14:11:59.669Z,8.10
2023-02-26T14:14:37.611Z,8.00
2023-02-26T14:17:29.975Z,7.90
2023-02-26T14:20:20.136Z,7.80
2023-02-26T14:22:53.676Z,7.70
2023-02-26T14:25:34.928Z,7.60
2023-02-26T14:28:41.255Z,7.50
2023-02-26T14:31:17.642Z,7.50
2023-02-26T14:33:58.346Z,7.50
2023-02-26T14:36:35.497Z,7.40
2023-02-26T14:39:09.198Z,7.40
2023-02-26T14:41:42.185Z,7.30
2023-02-26T14:44:16.996Z,7.30
2023-02-26T14:46:47.489Z,7.20
2023-02-26T14:49:25.196Z,7.10
2023-02-26T14:52:19.098Z,7.10
2023-02-26T14:55:01.879Z,7.00
2023-02-26T14:57:42.338Z,6.90
2023-02-26T15:00:24.031Z,6.90
2023-02-26T15:03:14.324Z,6.90
2023-02-26T15:05:57.244Z,6.90
2023-02-26T15:08:40.796Z,6.80
2023-02-26T15:11:33.899Z,6.80
2023-02-26T15:14:23.750Z,6.70
2023-02-26T15:17:04.522Z,6.60
2023-02-26T15:19:50.598Z,6.60
2023-02-26T15:22:33.984Z,6.50
2023-02-26T15:25:03.406Z,6.50
2023-02-26T15:27:35.096Z,6.50
2023-02-26T15:30:07.610Z,6.50
2023-02-26T15:32:41.160Z,6.50
2023-02-26T15:35:19.883Z,6.50
2023-02-26T15:37:50.994Z,6.50
2023-02-26T15:40:22.055Z,6.40
2023-02-26T15:42:54.562Z,6.50
2023-02-26T15:45:29.356Z,6.40
2023-02-26T15:48:02.200Z,6.40
2023-02-26T15:50:34.899Z,6.40
2023-02-26T15:53:06.141Z,6.40
2023-02-26T15:55:39.256Z,6.40
2023-02-26T15:58:09.253Z,6.40
2023-02-26T16:00:40.228Z,6.30
2023-02-26T16:03:11.766Z,6.30
2023-02-26T16:05:41.443Z,6.30
2023-02-26T16:08:18.280Z,6.30
2023-02-26T16:10:47.602Z,6.30
2023-02-26T16:13:22.223Z,6.20
2023-02-26T16:15:52.853Z,6.20
2023-02-26T16:18:26.260Z,6.10
2023-02-26T16:20:58.871Z,6.10
2023-02-26T16:23:41.829Z,6.10
2023-02-26T16:26:17.008Z,6.10
2023-02-26T16:28:47.172Z,6.10
2023-02-26T16:31:20.531Z,6.00
2023-02-26T16:33:56.588Z,6.00
2023-02-26T16:36:28.689Z,6.00
2023-02-26T16:39:14.605Z,5.90
2023-02-26T16:41:43.736Z,5.90
2023-02-26T16:44:40.569Z,5.90
2023-02-26T16:47:11.844Z,5.80
2023-02-26T16:49:42.553Z,5.80
2023-02-26T16:52:17.303Z,5.80
2023-02-26T16:54:55.467Z,5.70
2023-02-26T16:57:30.545Z,5.70
2023-02-26T17:00:06.754Z,5.70
2023-02-26T17:02:39.102Z,5.70
2023-02-26T17:05:22.467Z,5.60
2023-02-26T17:07:58.262Z,5.70
2023-02-26T17:10:33.749Z,5.60
2023-02-26T17:13:15.299Z,5.60
2023-02-26T17:15:46.406Z,5.60
2023-02-26T17:18:16.892Z,5.60
2023-02-26T17:20:46.339Z,5.60
2023-02-26T17:23:17.914Z,5.60
2023-02-26T17:25:51.553Z,5.60
2023-02-26T17:28:24.215Z,5.60
2023-02-26T17:30:53.713Z,5.50
2023-02-26T17:33:24.547Z,5.50
2023-02-26T17:35:56.784Z,5.50
2023-02-26T17:38:25.914Z,5.50
2023-02-26T17:40:55.723Z,5.50
2023-02-26T17:43:24.752Z,5.40
2023-02-26T17:45:53.944Z,5.40
2023-02-26T17:48:24.857Z,5.40
2023-02-26T17:50:55.561Z,5.40
2023-02-26T17:53:27.476Z,5.30
2023-02-26T17:55:57.401Z,5.30
2023-02-26T17:58:29.413Z,5.30
2023-02-26T18:00:58.883Z,5.30
2023-02-26T18:03:29.529Z,5.30
2023-02-26T18:05:59.212Z,5.20
2023-02-26T18:08:30.447Z,5.20
2023-02-26T18:11:00.408Z,5.20
2023-02-26T18:13:30.446Z,5.20
2023-02-26T18:16:02.795Z,5.20
2023-02-26T18:18:33.800Z,5.10
2023-02-26T18:21:02.773Z,5.10
2023-02-26T18:23:32.005Z,5.10
2023-02-26T18:26:02.606Z,5.10
2023-02-26T18:28:34.048Z,5.00
2023-02-26T18:31:08.504Z,5.00
2023-02-26T18:33:41.106Z,5.00
2023-02-26T18:36:16.499Z,5.00
2023-02-26T18:38:45.249Z,4.90
2023-02-26T18:41:14.308Z,4.90
2023-02-26T18:43:43.155Z,4.90
2023-02-26T18:46:13.319Z,4.90
2023-02-26T18:48:43.702Z,4.80
2023-02-26T18:51:13.006Z,4.80
2023-02-26T18:53:42.093Z,4.80
2023-02-26T18:56:11.048Z,4.80
2023-02-26T18:58:40.615Z,4.80
2023-02-26T19:01:09.738Z,4.70
2023-02-26T19:03:39.263Z,4.70
2023-02-26T19:06:09.823Z,4.70
2023-02-26T19:08:38.857Z,4.70
2023-02-26T19:11:08.081Z,4.70
2023-02-26T19:13:37.160Z,4.70
2023-02-26T19:16:06.927Z,4.70
2023-02-26T19:18:35.848Z,4.70
2023-02-26T19:21:05.953Z,4.70
2023-02-26T19:23:36.302Z,4.70
2023-02-26T19:26:06.066Z,4.70
2023-02-26T19:28:35.112Z,4.70
2023-02-26T19:31:06.785Z,4.70
2023-02-26T19:33:36.108Z,4.70
2023-02-26T19:36:05.968Z,4.70
2023-02-26T19:38:36.080Z,4.70
2023-02-26T19:41:05.484Z,4.60
2023-02-26T19:43:34.322Z,4.60
2023-02-26T19:46:03.256Z,4.60
2023-02-26T19:48:32.399Z,4.60
2023-02-26T19:51:03.165Z,4.60
2023-02-26T19:53:33.836Z,4.60
2023-02-26T19:56:05.352Z,4.60
2023-02-26T19:58:34.654Z,4.60
2023-02-26T20:01:06.012Z,4.60
2023-02-26T20:03:35.200Z,4.50
2023-02-26T20:06:04.465Z,4.50
2023-02-26T20:08:33.320Z,4.50
2023-02-26T20:11:02.283Z,4.50
2023-02-26T20:13:34.903Z,4.50
2023-02-26T20:16:05.660Z,4.40
2023-02-26T20:18:35.278Z,4.40
2023-02-26T20:21:06.816Z,4.40
2023-02-26T20:23:37.649Z,4.40
2023-02-26T20:26:09.535Z,4.40
2023-02-26T20:28:43.281Z,4.40
2023-02-26T20:31:12.848Z,4.40
2023-02-26T20:33:42.103Z,4.40
2023-02-26T20:36:11.814Z,4.30
2023-02-26T20:38:40.888Z,4.30
2023-02-26T20:41:10.496Z,4.30
2023-02-26T20:43:39.648Z,4.30
2023-02-26T20:46:10.134Z,4.30
2023-02-26T20:48:41.775Z,4.30
2023-02-26T20:51:12.157Z,4.30
2023-02-26T20:53:41.576Z,4.30
2023-02-26T20:56:10.603Z,4.20
2023-02-26T20:58:41.280Z,4.20
2023-02-26T21:01:11.818Z,4.20
2023-02-26T21:03:52.240Z,4.20
2023-02-26T21:06:24.049Z,4.20
2023-02-26T21:08:53.061Z,4.10
2023-02-26T21:11:22.045Z,4.10
2023-02-26T21:13:54.831Z,4.10
2023-02-26T21:16:28.612Z,4.10
2023-02-26T21:19:00.571Z,4.10
2023-02-26T21:21:30.148Z,4.10
2023-02-26T21:23:59.424Z,4.10
2023-02-26T21:26:28.410Z,4.10
2023-02-26T21:28:57.320Z,4.00
2023-02-26T21:31:27.985Z,4.00
2023-02-26T21:33:57.028Z,4.00
2023-02-26T21:36:25.988Z,4.00
2023-02-26T21:38:55.079Z,4.00
2023-02-26T21:41:24.542Z,4.00
2023-02-26T21:43:53.783Z,4.00
2023-02-26T21:46:23.061Z,4.00
2023-02-26T21:48:53.385Z,4.00
2023-02-26T21:51:22.433Z,4.00
2023-02-26T21:53:51.404Z,3.90
2023-02-26T21:56:21.869Z,3.90
2023-02-26T21:58:50.884Z,3.90
2023-02-26T22:01:19.755Z,3.90
2023-02-26T22:03:48.864Z,3.90
2023-02-26T22:06:19.071Z,3.90
2023-02-26T22:08:48.102Z,3.90
2023-02-26T22:11:17.060Z,3.90
2023-02-26T22:13:45.886Z,3.80
2023-02-26T22:16:14.828Z,3.80
2023-02-26T22:18:44.186Z,3.80
2023-02-26T22:21:13.496Z,3.80
2023-02-26T22:23:44.454Z,3.80
2023-02-26T22:26:13.441Z,3.80
2023-02-26T22:28:42.204Z,3.80
2023-02-26T22:31:11.267Z,3.80
2023-02-26T22:33:40.594Z,3.80
2023-02-26T22:36:09.832Z,3.80
2023-02-26T22:38:38.984Z,3.80
2023-02-26T22:41:09.437Z,3.80
2023-02-26T22:43:38.341Z,3.80
2023-02-26T22:46:07.527Z,3.70
2023-02-26T22:48:37.260Z,3.70
2023-02-26T22:51:06.751Z,3.70
2023-02-26T22:53:35.722Z,3.70
2023-02-26T22:56:04.994Z,3.70
2023-02-26T22:58:35.375Z,3.70
2023-02-26T23:01:06.588Z,3.70
2023-02-26T23:03:35.789Z,3.70
2023-02-26T23:06:05.093Z,3.70
2023-02-26T23:08:34.287Z,3.70
2023-02-26T23:11:04.931Z,3.70
2023-02-26T23:13:36.585Z,3.70
2023-02-26T23:16:08.339Z,3.70
2023-02-26T23:18:37.947Z,3.60
2023-02-26T23:21:08.775Z,3.60
2023-02-26T23:23:37.649Z,3.60
2023-02-26T23:26:07.171Z,3.60
2023-02-26T23:28:37.493Z,3.60
2023-02-26T23:31:06.613Z,3.60
2023-02-26T23:33:35.533Z,3.50
2023-02-26T23:36:04.715Z,3.50
2023-02-26T23:38:33.834Z,3.50
2023-02-26T23:41:02.892Z,3.50
2023-02-26T23:43:31.840Z,3.50
2023-02-26T23:46:02.299Z,3.50
2023-02-26T23:48:31.197Z,3.50
2023-02-26T23:51:00.188Z,3.40
2023-02-26T23:53:29.222Z,3.40
2023-02-26T23:55:58.965Z,3.40
2023-02-26T23:58:29.074Z,3.40
